sensor_id;sensor_type;location;lat;lon;timestamp;P1;durP1;ratioP1;P2;durP2;ratioP2
34571;SDS011;20808;48.974;8.452;2022-09-28T00:01:30;4.60;;;1.07;;
34571;SDS011;20808;48.974;8.452;2022-09-28T00:03:58;3.53;;;1.20;;
34571;SDS011;20808;48.974;8.452;2022-09-28T00:06:26;3.97;;;1.27;;
34571;SDS011;20808;48.974;8.452;2022-09-28T00:08:55;4.60;;;1.10;;
34571;SDS011;20808;48.974;8.452;2022-09-28T00:11:23;2.20;;;1.30;;
34571;SDS011;20808;48.974;8.452;2022-09-28T00:13:52;3.80;;;1.17;;
34571;SDS011;20808;48.974;8.452;2022-09-28T00:16:22;10.13;;;1.27;;
34571;SDS011;20808;48.974;8.452;2022-09-28T00:18:51;2.03;;;0.90;;
34571;SDS011;20808;48.974;8.452;2022-09-28T00:21:19;3.50;;;1.20;;
34571;SDS011;20808;48.974;8.452;2022-09-28T00:23:49;3.50;;;1.00;;
34571;SDS011;20808;48.974;8.452;2022-09-28T00:26:36;3.77;;;1.17;;
34571;SDS011;20808;48.974;8.452;2022-09-28T00:29:05;4.40;;;1.07;;
34571;SDS011;20808;48.974;8.452;2022-09-28T00:31:33;5.47;;;1.30;;
34571;SDS011;20808;48.974;8.452;2022-09-28T00:34:01;5.43;;;1.30;;
34571;SDS011;20808;48.974;8.452;2022-09-28T00:36:30;11.20;;;1.80;;
34571;SDS011;20808;48.974;8.452;2022-09-28T00:38:58;4.47;;;1.00;;
34571;SDS011;20808;48.974;8.452;2022-09-28T00:41:29;10.83;;;1.20;;
34571;SDS011;20808;48.974;8.452;2022-09-28T00:47:00;4.50;;;1.10;;
34571;SDS011;20808;48.974;8.452;2022-09-28T00:49:35;6.67;;;1.27;;
34571;SDS011;20808;48.974;8.452;2022-09-28T00:52:08;2.13;;;1.00;;
34571;SDS011;20808;48.974;8.452;2022-09-28T00:54:37;3.30;;;1.30;;
34571;SDS011;20808;48.974;8.452;2022-09-28T00:57:06;1.93;;;1.17;;
34571;SDS011;20808;48.974;8.452;2022-09-28T00:59:34;1.77;;;1.23;;
34571;SDS011;20808;48.974;8.452;2022-09-28T01:02:01;5.60;;;1.37;;
34571;SDS011;20808;48.974;8.452;2022-09-28T01:04:28;3.80;;;0.93;;
34571;SDS011;20808;48.974;8.452;2022-09-28T01:06:56;3.10;;;1.43;;
34571;SDS011;20808;48.974;8.452;2022-09-28T01:09:24;9.97;;;1.20;;
34571;SDS011;20808;48.974;8.452;2022-09-28T01:11:52;7.13;;;1.50;;
34571;SDS011;20808;48.974;8.452;2022-09-28T01:14:20;8.43;;;1.80;;
34571;SDS011;20808;48.974;8.452;2022-09-28T01:16:53;3.03;;;1.17;;
34571;SDS011;20808;48.974;8.452;2022-09-28T01:19:35;3.60;;;1.10;;
34571;SDS011;20808;48.974;8.452;2022-09-28T01:22:17;4.90;;;1.00;;
34571;SDS011;20808;48.974;8.452;2022-09-28T01:24:54;5.53;;;1.20;;
34571;SDS011;20808;48.974;8.452;2022-09-28T01:27:26;7.37;;;1.30;;
34571;SDS011;20808;48.974;8.452;2022-09-28T01:29:55;5.70;;;1.97;;
34571;SDS011;20808;48.974;8.452;2022-09-28T01:32:31;7.97;;;1.20;;
34571;SDS011;20808;48.974;8.452;2022-09-28T01:35:04;3.47;;;1.20;;
34571;SDS011;20808;48.974;8.452;2022-09-28T01:37:34;5.77;;;1.60;;
34571;SDS011;20808;48.974;8.452;2022-09-28T01:40:06;4.27;;;1.60;;
34571;SDS011;20808;48.974;8.452;2022-09-28T01:42:37;5.40;;;1.43;;
34571;SDS011;20808;48.974;8.452;2022-09-28T01:45:08;6.23;;;1.80;;
34571;SDS011;20808;48.974;8.452;2022-09-28T01:47:40;4.60;;;1.50;;
34571;SDS011;20808;48.974;8.452;2022-09-28T01:50:10;3.80;;;1.20;;
34571;SDS011;20808;48.974;8.452;2022-09-28T01:52:42;4.80;;;1.67;;
34571;SDS011;20808;48.974;8.452;2022-09-28T01:55:12;6.53;;;1.60;;
34571;SDS011;20808;48.974;8.452;2022-09-28T01:57:47;5.20;;;1.80;;
34571;SDS011;20808;48.974;8.452;2022-09-28T02:00:19;2.30;;;1.60;;
34571;SDS011;20808;48.974;8.452;2022-09-28T02:02:50;5.13;;;2.00;;
34571;SDS011;20808;48.974;8.452;2022-09-28T02:05:21;6.10;;;2.10;;
34571;SDS011;20808;48.974;8.452;2022-09-28T02:07:54;12.83;;;2.30;;
34571;SDS011;20808;48.974;8.452;2022-09-28T02:10:25;5.63;;;2.07;;
34571;SDS011;20808;48.974;8.452;2022-09-28T02:12:57;5.13;;;2.13;;
34571;SDS011;20808;48.974;8.452;2022-09-28T02:15:29;13.43;;;2.53;;
34571;SDS011;20808;48.974;8.452;2022-09-28T02:18:02;8.13;;;2.43;;
34571;SDS011;20808;48.974;8.452;2022-09-28T02:20:29;5.43;;;2.43;;
34571;SDS011;20808;48.974;8.452;2022-09-28T02:22:57;8.10;;;2.30;;
34571;SDS011;20808;48.974;8.452;2022-09-28T02:25:27;6.30;;;1.90;;
34571;SDS011;20808;48.974;8.452;2022-09-28T02:28:00;2.47;;;1.30;;
34571;SDS011;20808;48.974;8.452;2022-09-28T02:30:30;4.23;;;1.60;;
34571;SDS011;20808;48.974;8.452;2022-09-28T02:33:00;2.90;;;1.50;;
34571;SDS011;20808;48.974;8.452;2022-09-28T02:35:30;9.60;;;1.40;;
34571;SDS011;20808;48.974;8.452;2022-09-28T02:37:59;3.00;;;1.20;;
34571;SDS011;20808;48.974;8.452;2022-09-28T02:40:28;1.97;;;1.10;;
34571;SDS011;20808;48.974;8.452;2022-09-28T02:42:58;2.93;;;1.00;;
34571;SDS011;20808;48.974;8.452;2022-09-28T02:45:43;1.90;;;0.90;;
34571;SDS011;20808;48.974;8.452;2022-09-28T02:48:18;3.07;;;1.20;;
34571;SDS011;20808;48.974;8.452;2022-09-28T02:50:58;2.53;;;1.20;;
34571;SDS011;20808;48.974;8.452;2022-09-28T02:53:44;2.63;;;1.70;;
34571;SDS011;20808;48.974;8.452;2022-09-28T02:56:26;2.17;;;1.97;;
34571;SDS011;20808;48.974;8.452;2022-09-28T02:59:11;5.33;;;1.20;;
34571;SDS011;20808;48.974;8.452;2022-09-28T03:01:49;2.73;;;1.10;;
34571;SDS011;20808;48.974;8.452;2022-09-28T03:04:23;3.33;;;1.20;;
34571;SDS011;20808;48.974;8.452;2022-09-28T03:06:57;3.83;;;1.27;;
34571;SDS011;20808;48.974;8.452;2022-09-28T03:09:28;3.00;;;1.30;;
34571;SDS011;20808;48.974;8.452;2022-09-28T03:12:03;2.63;;;1.30;;
34571;SDS011;20808;48.974;8.452;2022-09-28T03:14:45;2.07;;;1.40;;
34571;SDS011;20808;48.974;8.452;2022-09-28T03:17:12;2.87;;;1.13;;
34571;SDS011;20808;48.974;8.452;2022-09-28T03:19:38;6.47;;;1.60;;
34571;SDS011;20808;48.974;8.452;2022-09-28T03:22:05;4.50;;;1.53;;
34571;SDS011;20808;48.974;8.452;2022-09-28T03:24:32;3.20;;;1.47;;
34571;SDS011;20808;48.974;8.452;2022-09-28T03:26:59;2.60;;;1.50;;
34571;SDS011;20808;48.974;8.452;2022-09-28T03:29:26;2.03;;;1.20;;
34571;SDS011;20808;48.974;8.452;2022-09-28T03:31:56;3.80;;;1.43;;
34571;SDS011;20808;48.974;8.452;2022-09-28T03:34:23;5.90;;;3.37;;
34571;SDS011;20808;48.974;8.452;2022-09-28T03:36:50;2.43;;;1.37;;
34571;SDS011;20808;48.974;8.452;2022-09-28T03:39:17;1.43;;;1.20;;
34571;SDS011;20808;48.974;8.452;2022-09-28T03:41:44;4.77;;;1.50;;
34571;SDS011;20808;48.974;8.452;2022-09-28T03:44:11;1.80;;;1.30;;
34571;SDS011;20808;48.974;8.452;2022-09-28T03:46:37;3.40;;;1.53;;
34571;SDS011;20808;48.974;8.452;2022-09-28T03:49:05;3.60;;;1.43;;
34571;SDS011;20808;48.974;8.452;2022-09-28T03:51:33;4.00;;;1.90;;
34571;SDS011;20808;48.974;8.452;2022-09-28T03:54:00;10.00;;;1.40;;
34571;SDS011;20808;48.974;8.452;2022-09-28T03:56:27;6.80;;;1.60;;
34571;SDS011;20808;48.974;8.452;2022-09-28T03:58:54;4.83;;;2.00;;
34571;SDS011;20808;48.974;8.452;2022-09-28T04:01:21;3.13;;;1.43;;
34571;SDS011;20808;48.974;8.452;2022-09-28T04:03:51;4.43;;;1.50;;
34571;SDS011;20808;48.974;8.452;2022-09-28T04:06:20;7.37;;;1.80;;
34571;SDS011;20808;48.974;8.452;2022-09-28T04:08:47;3.63;;;1.60;;
34571;SDS011;20808;48.974;8.452;2022-09-28T04:11:13;2.20;;;1.50;;
34571;SDS011;20808;48.974;8.452;2022-09-28T04:13:40;2.97;;;1.40;;
34571;SDS011;20808;48.974;8.452;2022-09-28T04:16:08;4.00;;;1.80;;
34571;SDS011;20808;48.974;8.452;2022-09-28T04:18:35;5.30;;;1.63;;
34571;SDS011;20808;48.974;8.452;2022-09-28T04:21:03;3.87;;;1.70;;
34571;SDS011;20808;48.974;8.452;2022-09-28T04:23:33;4.13;;;2.20;;
34571;SDS011;20808;48.974;8.452;2022-09-28T04:26:01;5.83;;;2.40;;
34571;SDS011;20808;48.974;8.452;2022-09-28T04:28:28;4.73;;;2.27;;
34571;SDS011;20808;48.974;8.452;2022-09-28T04:31:13;5.37;;;1.97;;
34571;SDS011;20808;48.974;8.452;2022-09-28T04:33:43;5.17;;;2.10;;
34571;SDS011;20808;48.974;8.452;2022-09-28T04:36:10;6.60;;;2.00;;
34571;SDS011;20808;48.974;8.452;2022-09-28T04:38:38;3.07;;;1.80;;
34571;SDS011;20808;48.974;8.452;2022-09-28T04:41:06;7.23;;;2.10;;
34571;SDS011;20808;48.974;8.452;2022-09-28T04:43:32;5.80;;;1.90;;
34571;SDS011;20808;48.974;8.452;2022-09-28T04:46:00;5.97;;;2.23;;
34571;SDS011;20808;48.974;8.452;2022-09-28T04:48:29;6.00;;;2.50;;
34571;SDS011;20808;48.974;8.452;2022-09-28T04:50:57;4.27;;;2.30;;
34571;SDS011;20808;48.974;8.452;2022-09-28T04:53:25;5.50;;;2.77;;
34571;SDS011;20808;48.974;8.452;2022-09-28T04:55:57;3.77;;;2.03;;
34571;SDS011;20808;48.974;8.452;2022-09-28T04:58:26;4.17;;;1.83;;
34571;SDS011;20808;48.974;8.452;2022-09-28T05:00:55;4.40;;;2.40;;
34571;SDS011;20808;48.974;8.452;2022-09-28T05:03:24;7.93;;;2.60;;
34571;SDS011;20808;48.974;8.452;2022-09-28T05:05:51;7.73;;;2.60;;
34571;SDS011;20808;48.974;8.452;2022-09-28T05:08:18;5.67;;;2.50;;
34571;SDS011;20808;48.974;8.452;2022-09-28T05:10:45;8.93;;;3.13;;
34571;SDS011;20808;48.974;8.452;2022-09-28T05:13:13;7.60;;;3.10;;
34571;SDS011;20808;48.974;8.452;2022-09-28T05:15:42;5.13;;;2.90;;
34571;SDS011;20808;48.974;8.452;2022-09-28T05:18:09;5.80;;;3.27;;
34571;SDS011;20808;48.974;8.452;2022-09-28T05:20:40;5.13;;;2.50;;
34571;SDS011;20808;48.974;8.452;2022-09-28T05:23:08;7.13;;;2.97;;
34571;SDS011;20808;48.974;8.452;2022-09-28T05:25:36;4.40;;;2.67;;
34571;SDS011;20808;48.974;8.452;2022-09-28T05:28:03;6.90;;;2.93;;
34571;SDS011;20808;48.974;8.452;2022-09-28T05:30:32;7.77;;;2.77;;
34571;SDS011;20808;48.974;8.452;2022-09-28T05:32:59;6.03;;;2.80;;
34571;SDS011;20808;48.974;8.452;2022-09-28T05:35:26;6.33;;;3.10;;
34571;SDS011;20808;48.974;8.452;2022-09-28T05:37:54;6.57;;;2.63;;
34571;SDS011;20808;48.974;8.452;2022-09-28T05:40:21;14.10;;;3.53;;
34571;SDS011;20808;48.974;8.452;2022-09-28T05:42:48;9.93;;;3.70;;
34571;SDS011;20808;48.974;8.452;2022-09-28T05:45:15;10.17;;;3.47;;
34571;SDS011;20808;48.974;8.452;2022-09-28T05:47:43;9.20;;;4.00;;
34571;SDS011;20808;48.974;8.452;2022-09-28T05:50:11;11.77;;;4.43;;
34571;SDS011;20808;48.974;8.452;2022-09-28T05:52:40;20.83;;;3.63;;
34571;SDS011;20808;48.974;8.452;2022-09-28T05:55:07;9.10;;;3.97;;
34571;SDS011;20808;48.974;8.452;2022-09-28T05:57:35;8.70;;;3.50;;
34571;SDS011;20808;48.974;8.452;2022-09-28T06:00:02;7.13;;;3.87;;
34571;SDS011;20808;48.974;8.452;2022-09-28T06:02:29;7.10;;;3.80;;
34571;SDS011;20808;48.974;8.452;2022-09-28T06:04:57;6.47;;;3.23;;
34571;SDS011;20808;48.974;8.452;2022-09-28T06:07:24;7.23;;;2.93;;
34571;SDS011;20808;48.974;8.452;2022-09-28T06:09:51;8.87;;;3.80;;
34571;SDS011;20808;48.974;8.452;2022-09-28T06:12:18;5.50;;;3.40;;
34571;SDS011;20808;48.974;8.452;2022-09-28T06:14:45;16.20;;;4.60;;
34571;SDS011;20808;48.974;8.452;2022-09-28T06:17:13;11.00;;;3.87;;
34571;SDS011;20808;48.974;8.452;2022-09-28T06:19:40;11.73;;;3.77;;
34571;SDS011;20808;48.974;8.452;2022-09-28T06:22:09;11.17;;;4.50;;
34571;SDS011;20808;48.974;8.452;2022-09-28T06:24:36;11.50;;;5.70;;
34571;SDS011;20808;48.974;8.452;2022-09-28T06:27:03;8.50;;;4.13;;
34571;SDS011;20808;48.974;8.452;2022-09-28T06:29:29;16.03;;;3.60;;
34571;SDS011;20808;48.974;8.452;2022-09-28T06:31:56;10.57;;;3.77;;
34571;SDS011;20808;48.974;8.452;2022-09-28T06:34:23;7.50;;;2.93;;
34571;SDS011;20808;48.974;8.452;2022-09-28T06:36:49;9.80;;;3.30;;
34571;SDS011;20808;48.974;8.452;2022-09-28T06:39:18;8.50;;;3.40;;
34571;SDS011;20808;48.974;8.452;2022-09-28T06:41:44;8.40;;;3.57;;
34571;SDS011;20808;48.974;8.452;2022-09-28T06:44:11;10.97;;;5.40;;
34571;SDS011;20808;48.974;8.452;2022-09-28T06:46:38;6.87;;;3.50;;
34571;SDS011;20808;48.974;8.452;2022-09-28T06:49:05;7.80;;;3.43;;
34571;SDS011;20808;48.974;8.452;2022-09-28T06:51:33;8.83;;;3.90;;
34571;SDS011;20808;48.974;8.452;2022-09-28T06:54:00;7.93;;;4.20;;
34571;SDS011;20808;48.974;8.452;2022-09-28T06:56:29;6.97;;;3.80;;
34571;SDS011;20808;48.974;8.452;2022-09-28T06:58:55;9.30;;;4.37;;
34571;SDS011;20808;48.974;8.452;2022-09-28T07:01:22;6.43;;;3.17;;
34571;SDS011;20808;48.974;8.452;2022-09-28T07:03:49;13.13;;;4.20;;
34571;SDS011;20808;48.974;8.452;2022-09-28T07:06:16;10.20;;;3.20;;
34571;SDS011;20808;48.974;8.452;2022-09-28T07:08:44;8.57;;;3.10;;
34571;SDS011;20808;48.974;8.452;2022-09-28T07:11:11;13.40;;;3.93;;
34571;SDS011;20808;48.974;8.452;2022-09-28T07:13:40;9.93;;;4.03;;
34571;SDS011;20808;48.974;8.452;2022-09-28T07:16:26;5.63;;;3.30;;
34571;SDS011;20808;48.974;8.452;2022-09-28T07:18:53;3.97;;;3.20;;
34571;SDS011;20808;48.974;8.452;2022-09-28T07:21:20;6.17;;;2.93;;
34571;SDS011;20808;48.974;8.452;2022-09-28T07:23:46;5.80;;;2.80;;
34571;SDS011;20808;48.974;8.452;2022-09-28T07:26:14;9.63;;;3.27;;
34571;SDS011;20808;48.974;8.452;2022-09-28T07:28:42;13.83;;;3.90;;
34571;SDS011;20808;48.974;8.452;2022-09-28T07:31:09;9.00;;;3.50;;
34571;SDS011;20808;48.974;8.452;2022-09-28T07:33:36;9.90;;;3.23;;
34571;SDS011;20808;48.974;8.452;2022-09-28T07:36:02;7.20;;;3.37;;
34571;SDS011;20808;48.974;8.452;2022-09-28T07:38:31;9.47;;;3.80;;
34571;SDS011;20808;48.974;8.452;2022-09-28T07:40:58;8.50;;;3.30;;
34571;SDS011;20808;48.974;8.452;2022-09-28T07:43:38;10.13;;;3.40;;
34571;SDS011;20808;48.974;8.452;2022-09-28T07:46:06;7.70;;;3.20;;
34571;SDS011;20808;48.974;8.452;2022-09-28T07:48:36;10.00;;;3.40;;
34571;SDS011;20808;48.974;8.452;2022-09-28T07:51:05;8.70;;;3.63;;
34571;SDS011;20808;48.974;8.452;2022-09-28T07:53:32;8.07;;;3.53;;
34571;SDS011;20808;48.974;8.452;2022-09-28T07:56:00;9.53;;;4.53;;
34571;SDS011;20808;48.974;8.452;2022-09-28T07:58:31;15.83;;;4.90;;
34571;SDS011;20808;48.974;8.452;2022-09-28T08:01:02;10.23;;;3.80;;
34571;SDS011;20808;48.974;8.452;2022-09-28T08:03:32;9.53;;;3.37;;
34571;SDS011;20808;48.974;8.452;2022-09-28T08:05:59;13.23;;;4.57;;
34571;SDS011;20808;48.974;8.452;2022-09-28T08:08:27;7.87;;;3.87;;
34571;SDS011;20808;48.974;8.452;2022-09-28T08:10:55;16.13;;;4.50;;
34571;SDS011;20808;48.974;8.452;2022-09-28T08:13:22;6.10;;;3.13;;
34571;SDS011;20808;48.974;8.452;2022-09-28T08:15:51;8.63;;;3.20;;
34571;SDS011;20808;48.974;8.452;2022-09-28T08:18:18;14.47;;;3.77;;
34571;SDS011;20808;48.974;8.452;2022-09-28T08:20:50;10.00;;;4.00;;
34571;SDS011;20808;48.974;8.452;2022-09-28T08:23:46;7.97;;;3.40;;
34571;SDS011;20808;48.974;8.452;2022-09-28T08:26:13;6.40;;;3.37;;
34571;SDS011;20808;48.974;8.452;2022-09-28T08:28:40;11.67;;;3.60;;
34571;SDS011;20808;48.974;8.452;2022-09-28T08:31:09;10.80;;;4.50;;
34571;SDS011;20808;48.974;8.452;2022-09-28T08:33:36;7.70;;;2.97;;
34571;SDS011;20808;48.974;8.452;2022-09-28T08:36:05;6.47;;;3.60;;
34571;SDS011;20808;48.974;8.452;2022-09-28T08:38:32;7.83;;;3.23;;
34571;SDS011;20808;48.974;8.452;2022-09-28T08:41:01;5.70;;;3.73;;
34571;SDS011;20808;48.974;8.452;2022-09-28T08:43:40;8.37;;;2.97;;
34571;SDS011;20808;48.974;8.452;2022-09-28T08:46:18;8.77;;;3.43;;
34571;SDS011;20808;48.974;8.452;2022-09-28T08:48:50;6.73;;;2.97;;
34571;SDS011;20808;48.974;8.452;2022-09-28T08:51:21;7.83;;;2.83;;
34571;SDS011;20808;48.974;8.452;2022-09-28T08:53:52;3.60;;;2.40;;
34571;SDS011;20808;48.974;8.452;2022-09-28T08:56:26;5.63;;;2.80;;
34571;SDS011;20808;48.974;8.452;2022-09-28T08:58:57;8.83;;;3.13;;
34571;SDS011;20808;48.974;8.452;2022-09-28T09:01:30;7.37;;;3.50;;
34571;SDS011;20808;48.974;8.452;2022-09-28T09:04:02;10.47;;;3.03;;
34571;SDS011;20808;48.974;8.452;2022-09-28T09:06:35;7.50;;;3.30;;
34571;SDS011;20808;48.974;8.452;2022-09-28T09:09:13;8.97;;;2.70;;
34571;SDS011;20808;48.974;8.452;2022-09-28T09:11:51;8.73;;;3.27;;
34571;SDS011;20808;48.974;8.452;2022-09-28T09:14:38;9.13;;;3.53;;
34571;SDS011;20808;48.974;8.452;2022-09-28T09:17:21;6.53;;;2.77;;
34571;SDS011;20808;48.974;8.452;2022-09-28T09:19:57;6.70;;;2.87;;
34571;SDS011;20808;48.974;8.452;2022-09-28T09:22:38;9.70;;;3.10;;
34571;SDS011;20808;48.974;8.452;2022-09-28T09:25:12;7.30;;;2.40;;
34571;SDS011;20808;48.974;8.452;2022-09-28T09:27:52;9.73;;;3.13;;
34571;SDS011;20808;48.974;8.452;2022-09-28T09:30:35;6.50;;;2.73;;
34571;SDS011;20808;48.974;8.452;2022-09-28T09:33:19;6.67;;;3.17;;
34571;SDS011;20808;48.974;8.452;2022-09-28T09:36:02;5.60;;;3.00;;
34571;SDS011;20808;48.974;8.452;2022-09-28T09:38:47;8.27;;;2.83;;
34571;SDS011;20808;48.974;8.452;2022-09-28T09:41:29;8.10;;;2.47;;
34571;SDS011;20808;48.974;8.452;2022-09-28T09:44:11;11.30;;;2.50;;
34571;SDS011;20808;48.974;8.452;2022-09-28T09:46:45;3.70;;;2.23;;
34571;SDS011;20808;48.974;8.452;2022-09-28T09:49:19;6.27;;;2.20;;
34571;SDS011;20808;48.974;8.452;2022-09-28T09:51:51;8.97;;;2.73;;
34571;SDS011;20808;48.974;8.452;2022-09-28T09:54:27;5.17;;;2.50;;
34571;SDS011;20808;48.974;8.452;2022-09-28T09:57:01;8.80;;;2.50;;
34571;SDS011;20808;48.974;8.452;2022-09-28T09:59:32;6.83;;;2.73;;
34571;SDS011;20808;48.974;8.452;2022-09-28T10:02:08;6.03;;;2.50;;
34571;SDS011;20808;48.974;8.452;2022-09-28T10:04:43;4.83;;;2.13;;
34571;SDS011;20808;48.974;8.452;2022-09-28T10:07:13;10.33;;;2.10;;
34571;SDS011;20808;48.974;8.452;2022-09-28T10:09:47;4.27;;;2.00;;
34571;SDS011;20808;48.974;8.452;2022-09-28T10:12:17;6.60;;;2.10;;
34571;SDS011;20808;48.974;8.452;2022-09-28T10:14:46;6.63;;;2.40;;
34571;SDS011;20808;48.974;8.452;2022-09-28T10:17:14;5.80;;;2.47;;
34571;SDS011;20808;48.974;8.452;2022-09-28T10:19:44;7.70;;;2.10;;
34571;SDS011;20808;48.974;8.452;2022-09-28T10:22:12;6.97;;;2.07;;
34571;SDS011;20808;48.974;8.452;2022-09-28T10:24:43;7.47;;;2.10;;
34571;SDS011;20808;48.974;8.452;2022-09-28T10:27:14;3.83;;;1.67;;
34571;SDS011;20808;48.974;8.452;2022-09-28T10:29:44;4.80;;;2.00;;
34571;SDS011;20808;48.974;8.452;2022-09-28T10:32:20;6.57;;;2.10;;
34571;SDS011;20808;48.974;8.452;2022-09-28T10:34:49;5.20;;;2.20;;
34571;SDS011;20808;48.974;8.452;2022-09-28T10:37:19;4.67;;;1.83;;
34571;SDS011;20808;48.974;8.452;2022-09-28T10:39:48;6.10;;;2.30;;
34571;SDS011;20808;48.974;8.452;2022-09-28T10:42:20;7.37;;;2.00;;
34571;SDS011;20808;48.974;8.452;2022-09-28T10:44:52;7.57;;;2.20;;
34571;SDS011;20808;48.974;8.452;2022-09-28T10:47:22;5.07;;;2.13;;
34571;SDS011;20808;48.974;8.452;2022-09-28T10:49:51;5.40;;;2.10;;
34571;SDS011;20808;48.974;8.452;2022-09-28T10:52:33;4.23;;;2.07;;
34571;SDS011;20808;48.974;8.452;2022-09-28T10:55:21;8.57;;;3.00;;
34571;SDS011;20808;48.974;8.452;2022-09-28T10:57:52;4.20;;;1.90;;
34571;SDS011;20808;48.974;8.452;2022-09-28T11:00:29;4.80;;;1.80;;
34571;SDS011;20808;48.974;8.452;2022-09-28T11:03:02;3.60;;;1.70;;
34571;SDS011;20808;48.974;8.452;2022-09-28T11:05:30;3.00;;;1.57;;
34571;SDS011;20808;48.974;8.452;2022-09-28T11:07:57;3.43;;;1.53;;
34571;SDS011;20808;48.974;8.452;2022-09-28T11:10:28;3.67;;;1.73;;
34571;SDS011;20808;48.974;8.452;2022-09-28T11:12:58;6.33;;;1.80;;
34571;SDS011;20808;48.974;8.452;2022-09-28T11:15:26;4.63;;;2.03;;
34571;SDS011;20808;48.974;8.452;2022-09-28T11:17:55;6.93;;;2.17;;
34571;SDS011;20808;48.974;8.452;2022-09-28T11:20:29;2.97;;;1.60;;
34571;SDS011;20808;48.974;8.452;2022-09-28T11:23:03;9.70;;;2.00;;
34571;SDS011;20808;48.974;8.452;2022-09-28T11:25:59;2.50;;;1.40;;
34571;SDS011;20808;48.974;8.452;2022-09-28T11:28:30;4.77;;;1.90;;
34571;SDS011;20808;48.974;8.452;2022-09-28T11:30:58;7.90;;;1.80;;
34571;SDS011;20808;48.974;8.452;2022-09-28T11:33:28;5.30;;;1.93;;
34571;SDS011;20808;48.974;8.452;2022-09-28T11:36:13;8.47;;;1.90;;
34571;SDS011;20808;48.974;8.452;2022-09-28T11:38:53;3.00;;;1.60;;
34571;SDS011;20808;48.974;8.452;2022-09-28T11:41:30;2.70;;;1.50;;
34571;SDS011;20808;48.974;8.452;2022-09-28T11:44:19;8.23;;;1.70;;
34571;SDS011;20808;48.974;8.452;2022-09-28T11:46:55;4.40;;;1.57;;
34571;SDS011;20808;48.974;8.452;2022-09-28T11:49:30;3.40;;;1.90;;
34571;SDS011;20808;48.974;8.452;2022-09-28T11:52:04;4.70;;;1.70;;
34571;SDS011;20808;48.974;8.452;2022-09-28T11:54:39;5.33;;;1.47;;
34571;SDS011;20808;48.974;8.452;2022-09-28T11:57:12;2.23;;;1.40;;
34571;SDS011;20808;48.974;8.452;2022-09-28T11:59:46;7.80;;;2.10;;
34571;SDS011;20808;48.974;8.452;2022-09-28T12:02:20;4.70;;;1.90;;
34571;SDS011;20808;48.974;8.452;2022-09-28T12:04:51;3.90;;;1.57;;
34571;SDS011;20808;48.974;8.452;2022-09-28T12:07:22;3.13;;;1.50;;
34571;SDS011;20808;48.974;8.452;2022-09-28T12:09:56;5.00;;;1.50;;
34571;SDS011;20808;48.974;8.452;2022-09-28T12:12:27;6.73;;;1.80;;
34571;SDS011;20808;48.974;8.452;2022-09-28T12:14:59;4.00;;;1.70;;
34571;SDS011;20808;48.974;8.452;2022-09-28T12:17:31;4.00;;;1.70;;
34571;SDS011;20808;48.974;8.452;2022-09-28T12:20:05;2.87;;;1.33;;
34571;SDS011;20808;48.974;8.452;2022-09-28T12:22:42;5.10;;;1.50;;
34571;SDS011;20808;48.974;8.452;2022-09-28T12:25:12;6.07;;;1.63;;
34571;SDS011;20808;48.974;8.452;2022-09-28T12:27:44;3.10;;;1.50;;
34571;SDS011;20808;48.974;8.452;2022-09-28T12:30:17;2.70;;;1.47;;
34571;SDS011;20808;48.974;8.452;2022-09-28T12:32:45;4.47;;;2.20;;
34571;SDS011;20808;48.974;8.452;2022-09-28T12:35:18;5.10;;;1.67;;
34571;SDS011;20808;48.974;8.452;2022-09-28T12:38:00;4.70;;;1.50;;
34571;SDS011;20808;48.974;8.452;2022-09-28T12:40:44;4.27;;;1.50;;
34571;SDS011;20808;48.974;8.452;2022-09-28T12:43:26;2.23;;;1.23;;
34571;SDS011;20808;48.974;8.452;2022-09-28T12:46:18;3.17;;;1.70;;
34571;SDS011;20808;48.974;8.452;2022-09-28T12:51:45;1.87;;;1.30;;
34571;SDS011;20808;48.974;8.452;2022-09-28T12:54:18;3.97;;;1.30;;
34571;SDS011;20808;48.974;8.452;2022-09-28T12:57:00;2.87;;;1.30;;
34571;SDS011;20808;48.974;8.452;2022-09-28T12:59:41;5.03;;;1.30;;
34571;SDS011;20808;48.974;8.452;2022-09-28T13:02:34;3.27;;;1.40;;
34571;SDS011;20808;48.974;8.452;2022-09-28T13:05:43;5.47;;;1.73;;
34571;SDS011;20808;48.974;8.452;2022-09-28T13:08:34;5.67;;;1.73;;
34571;SDS011;20808;48.974;8.452;2022-09-28T13:11:12;3.63;;;1.60;;
34571;SDS011;20808;48.974;8.452;2022-09-28T13:13:46;4.03;;;1.47;;
34571;SDS011;20808;48.974;8.452;2022-09-28T13:16:22;2.40;;;1.63;;
34571;SDS011;20808;48.974;8.452;2022-09-28T13:19:00;4.90;;;1.30;;
34571;SDS011;20808;48.974;8.452;2022-09-28T13:21:37;3.27;;;1.40;;
34571;SDS011;20808;48.974;8.452;2022-09-28T13:24:13;4.80;;;1.83;;
34571;SDS011;20808;48.974;8.452;2022-09-28T13:26:46;3.57;;;1.10;;
34571;SDS011;20808;48.974;8.452;2022-09-28T13:29:14;4.50;;;1.40;;
34571;SDS011;20808;48.974;8.452;2022-09-28T13:31:44;4.07;;;1.37;;
34571;SDS011;20808;48.974;8.452;2022-09-28T13:34:16;3.10;;;1.40;;
34571;SDS011;20808;48.974;8.452;2022-09-28T13:39:50;2.10;;;1.40;;
34571;SDS011;20808;48.974;8.452;2022-09-28T13:42:27;3.00;;;1.10;;
34571;SDS011;20808;48.974;8.452;2022-09-28T13:45:14;2.07;;;0.90;;
34571;SDS011;20808;48.974;8.452;2022-09-28T13:47:56;4.90;;;1.60;;
34571;SDS011;20808;48.974;8.452;2022-09-28T13:51:00;2.70;;;1.40;;
34571;SDS011;20808;48.974;8.452;2022-09-28T13:53:44;3.70;;;1.30;;
34571;SDS011;20808;48.974;8.452;2022-09-28T13:56:22;3.30;;;1.33;;
34571;SDS011;20808;48.974;8.452;2022-09-28T13:58:56;2.30;;;1.10;;
34571;SDS011;20808;48.974;8.452;2022-09-28T14:01:27;3.37;;;1.10;;
34571;SDS011;20808;48.974;8.452;2022-09-28T14:04:09;2.63;;;1.13;;
34571;SDS011;20808;48.974;8.452;2022-09-28T14:06:42;3.13;;;1.33;;
34571;SDS011;20808;48.974;8.452;2022-09-28T14:12:29;4.93;;;1.63;;
34571;SDS011;20808;48.974;8.452;2022-09-28T14:18:05;4.20;;;1.37;;
34571;SDS011;20808;48.974;8.452;2022-09-28T14:20:41;3.13;;;1.00;;
34571;SDS011;20808;48.974;8.452;2022-09-28T14:26:19;3.63;;;1.40;;
34571;SDS011;20808;48.974;8.452;2022-09-28T14:29:08;2.20;;;1.30;;
34571;SDS011;20808;48.974;8.452;2022-09-28T14:31:46;5.90;;;1.30;;
34571;SDS011;20808;48.974;8.452;2022-09-28T14:34:22;2.20;;;1.20;;
34571;SDS011;20808;48.974;8.452;2022-09-28T14:36:55;1.73;;;1.00;;
34571;SDS011;20808;48.974;8.452;2022-09-28T14:39:42;4.60;;;1.37;;
34571;SDS011;20808;48.974;8.452;2022-09-28T14:42:27;4.53;;;1.50;;
34571;SDS011;20808;48.974;8.452;2022-09-28T14:50:46;7.20;;;1.57;;
34571;SDS011;20808;48.974;8.452;2022-09-28T14:53:16;5.07;;;1.43;;
34571;SDS011;20808;48.974;8.452;2022-09-28T14:55:48;5.20;;;1.40;;
34571;SDS011;20808;48.974;8.452;2022-09-28T14:58:17;3.20;;;1.40;;
34571;SDS011;20808;48.974;8.452;2022-09-28T15:00:46;4.30;;;1.30;;
34571;SDS011;20808;48.974;8.452;2022-09-28T15:03:20;6.77;;;1.50;;
34571;SDS011;20808;48.974;8.452;2022-09-28T15:05:49;2.27;;;1.20;;
34571;SDS011;20808;48.974;8.452;2022-09-28T15:08:18;2.70;;;1.47;;
34571;SDS011;20808;48.974;8.452;2022-09-28T15:10:48;11.07;;;4.20;;
34571;SDS011;20808;48.974;8.452;2022-09-28T15:13:18;4.37;;;1.90;;
34571;SDS011;20808;48.974;8.452;2022-09-28T15:15:48;3.43;;;1.40;;
34571;SDS011;20808;48.974;8.452;2022-09-28T15:21:08;2.60;;;1.40;;
34571;SDS011;20808;48.974;8.452;2022-09-28T15:23:36;3.63;;;1.63;;
34571;SDS011;20808;48.974;8.452;2022-09-28T15:26:18;20.47;;;13.17;;
34571;SDS011;20808;48.974;8.452;2022-09-28T15:28:47;12.87;;;7.40;;
34571;SDS011;20808;48.974;8.452;2022-09-28T15:31:15;2.97;;;2.20;;
34571;SDS011;20808;48.974;8.452;2022-09-28T15:33:43;3.10;;;1.70;;
34571;SDS011;20808;48.974;8.452;2022-09-28T15:36:28;4.03;;;3.20;;
34571;SDS011;20808;48.974;8.452;2022-09-28T15:38:58;8.30;;;5.00;;
34571;SDS011;20808;48.974;8.452;2022-09-28T15:41:29;9.70;;;4.13;;